SBSN/STM METAR and TAF weather

Enter ICAO airport designator
Station Type Date Time Source
SBSN METAR 2020/06/06 21:00 UTC NOAA

SBSN 062100Z 11004KT CAVOK 27/25 Q1011


Station Type Date Time Source
SBSN Decoded METAR 2020/06/06 21:00 UTC NOAA

Santarem-Aeroporto, Brazil (SBSN) 02-26S 054-43W 72M
Jun 06, 2020 - 05:00 PM EDT / 2020.06.06 2100 UTC
Wind: from the ESE (110 degrees) at 5 MPH (4 KT):0
Visibility: greater than 7 mile(s):0
Temperature: 80 F (27 C)
Dew Point: 77 F (25 C)
Relative Humidity: 88%
Pressure (altimeter): 29.85 in. Hg (1011 hPa)
ob: SBSN 062100Z 11004KT CAVOK 27/25 Q1011
cycle: 21

Station Type Date Time Source
SBSN TAF 2020/06/06 18:45 UTC NOAA

TAF SBSN 061500Z 0618/0718 05008KT 9999 SCT020 FEW025TCU TX31/0618Z TN22/0709Z
BECMG 0620/0622 4000 TSRA BKN015 FEW025CB
BECMG 0700/0702 9999 NSW FEW020
RMK PED

Example: see airport list